createdAt,value
2023-01-26T00:02:07.936Z,0.60
2023-01-26T00:04:35.080Z,0.60
2023-01-26T00:07:06.447Z,0.60
2023-01-26T00:09:33.449Z,0.60
2023-01-26T00:12:00.851Z,0.60
2023-01-26T00:14:27.924Z,0.60
2023-01-26T00:16:55.189Z,0.60
2023-01-26T00:19:22.410Z,0.60
2023-01-26T00:21:49.810Z,0.60
2023-01-26T00:24:16.855Z,0.60
2023-01-26T00:26:44.282Z,0.60
2023-01-26T00:29:11.678Z,0.60
2023-01-26T00:31:39.287Z,0.60
2023-01-26T00:34:06.432Z,0.60
2023-01-26T00:36:37.807Z,0.60
2023-01-26T00:39:05.316Z,0.60
2023-01-26T00:41:51.541Z,0.60
2023-01-26T00:44:18.777Z,0.60
2023-01-26T00:46:46.483Z,0.60
2023-01-26T00:49:13.682Z,0.60
2023-01-26T00:51:40.968Z,0.60
2023-01-26T00:54:08.078Z,0.60
2023-01-26T00:56:35.558Z,0.60
2023-01-26T00:59:02.623Z,0.70
2023-01-26T01:01:30.111Z,0.70
2023-01-26T01:03:57.291Z,0.80
2023-01-26T01:06:24.912Z,0.80
2023-01-26T01:08:52.096Z,0.80
2023-01-26T01:11:19.549Z,0.80
2023-01-26T01:13:46.602Z,0.80
2023-01-26T01:16:16.565Z,0.80
2023-01-26T01:18:44.173Z,0.80
2023-01-26T01:21:15.851Z,0.80
2023-01-26T01:23:43.929Z,0.70
2023-01-26T01:26:11.693Z,0.70
2023-01-26T01:28:38.975Z,0.40
2023-01-26T01:31:11.965Z,0.70
2023-01-26T01:33:40.239Z,0.70
2023-01-26T01:36:11.582Z,0.70
2023-01-26T01:38:38.744Z,0.80
2023-01-26T01:41:06.687Z,0.80
2023-01-26T01:43:34.059Z,0.80
2023-01-26T01:46:20.977Z,0.80
2023-01-26T01:48:58.795Z,0.80
2023-01-26T01:51:35.909Z,0.80
2023-01-26T01:54:12.787Z,0.80
2023-01-26T01:56:44.136Z,0.80
2023-01-26T01:59:13.068Z,0.80
2023-01-26T02:01:41.542Z,0.90
2023-01-26T02:04:09.151Z,0.80
2023-01-26T02:06:47.437Z,0.80
2023-01-26T02:09:35.944Z,0.90
2023-01-26T02:12:06.553Z,0.90
2023-01-26T02:14:34.988Z,0.80
2023-01-26T02:17:02.608Z,0.80
2023-01-26T02:20:04.608Z,1.30
2023-01-26T02:22:33.996Z,0.80
2023-01-26T02:25:10.049Z,0.80
2023-01-26T02:27:37.846Z,0.90
2023-01-26T02:30:06.283Z,0.80
2023-01-26T02:32:34.067Z,0.80
2023-01-26T02:35:01.121Z,0.90
2023-01-26T02:37:28.509Z,0.90
2023-01-26T02:40:14.680Z,0.90
2023-01-26T02:42:44.663Z,0.90
2023-01-26T02:45:15.807Z,1.00
2023-01-26T02:47:45.363Z,0.90
2023-01-26T02:50:13.781Z,0.90
2023-01-26T02:52:43.599Z,0.90
2023-01-26T02:55:30.913Z,0.90
2023-01-26T02:58:01.342Z,0.90
2023-01-26T03:00:42.992Z,0.90
2023-01-26T03:03:19.844Z,1.00
2023-01-26T03:05:47.707Z,1.00
2023-01-26T03:08:15.717Z,1.00
2023-01-26T03:10:47.550Z,1.00
2023-01-26T03:13:15.693Z,1.00
2023-01-26T03:15:43.308Z,1.00
2023-01-26T03:18:34.451Z,1.00
2023-01-26T03:21:22.540Z,1.00
2023-01-26T03:24:29.037Z,1.10
2023-01-26T03:27:32.228Z,1.10
2023-01-26T03:30:04.098Z,1.10
2023-01-26T03:32:32.355Z,1.10
2023-01-26T03:35:01.737Z,1.10
2023-01-26T03:37:36.926Z,1.10
2023-01-26T03:40:31.408Z,1.10
2023-01-26T03:43:17.196Z,1.20
2023-01-26T03:46:03.488Z,1.20
2023-01-26T03:48:50.814Z,1.20
2023-01-26T03:51:36.788Z,1.10
2023-01-26T03:54:22.729Z,1.10
2023-01-26T03:56:50.532Z,1.10
2023-01-26T03:59:21.084Z,1.20
2023-01-26T04:02:07.624Z,1.20
2023-01-26T04:04:54.611Z,1.20
2023-01-26T04:07:45.141Z,1.10
2023-01-26T04:10:12.512Z,1.10
2023-01-26T04:12:41.013Z,1.20
2023-01-26T04:15:35.574Z,1.20
2023-01-26T04:18:26.527Z,1.20
2023-01-26T04:21:13.329Z,1.20
2023-01-26T04:23:43.170Z,1.20
2023-01-26T04:26:10.281Z,1.20
2023-01-26T04:28:38.373Z,1.20
2023-01-26T04:31:06.755Z,1.30
2023-01-26T04:33:37.060Z,1.30
2023-01-26T04:36:09.330Z,1.30
2023-01-26T04:38:40.433Z,1.40
2023-01-26T04:41:08.010Z,1.40
2023-01-26T04:43:42.420Z,1.40
2023-01-26T04:46:10.092Z,1.40
2023-01-26T04:48:40.124Z,1.40
2023-01-26T04:51:20.006Z,1.50
2023-01-26T04:53:49.330Z,1.50
2023-01-26T04:56:33.158Z,1.50
2023-01-26T04:59:05.052Z,1.50
2023-01-26T05:01:34.069Z,1.60
2023-01-26T05:04:04.757Z,1.60
2023-01-26T05:06:33.416Z,1.60
2023-01-26T05:09:00.888Z,1.60
2023-01-26T05:11:28.906Z,1.60
2023-01-26T05:14:22.379Z,1.50
2023-01-26T05:17:04.245Z,1.50
2023-01-26T05:19:46.451Z,1.50
2023-01-26T05:22:31.888Z,1.50
2023-01-26T05:25:18.280Z,1.50
2023-01-26T05:28:11.821Z,1.50
2023-01-26T05:30:39.567Z,1.50
2023-01-26T05:33:10.095Z,1.50
2023-01-26T05:35:37.768Z,1.50
2023-01-26T05:38:08.170Z,1.50
2023-01-26T05:40:35.793Z,1.50
2023-01-26T05:43:03.103Z,1.50
2023-01-26T05:45:49.097Z,1.50
2023-01-26T05:48:17.532Z,1.50
2023-01-26T05:50:46.464Z,1.50
2023-01-26T05:53:15.916Z,1.50
2023-01-26T05:55:43.780Z,1.50
2023-01-26T05:58:11.685Z,1.50
2023-01-26T06:00:40.187Z,1.50
2023-01-26T06:03:12.807Z,1.50
2023-01-26T06:05:40.186Z,1.50
2023-01-26T06:08:23.320Z,1.50
2023-01-26T06:11:11.116Z,1.50
2023-01-26T06:14:01.365Z,1.50
2023-01-26T06:16:29.909Z,1.50
2023-01-26T06:18:57.303Z,1.50
2023-01-26T06:21:24.644Z,1.50
2023-01-26T06:23:51.724Z,1.50
2023-01-26T06:26:19.296Z,1.50
2023-01-26T06:28:46.653Z,1.50
2023-01-26T06:31:15.069Z,1.50
2023-01-26T06:33:43.100Z,1.40
2023-01-26T06:36:13.936Z,1.50
2023-01-26T06:38:52.146Z,1.40
2023-01-26T06:41:20.125Z,1.50
2023-01-26T06:43:48.773Z,1.50
2023-01-26T06:46:17.560Z,1.40
2023-01-26T06:48:46.282Z,1.50
2023-01-26T06:51:16.770Z,1.50
2023-01-26T06:53:48.604Z,1.50
2023-01-26T06:56:33.348Z,1.50
2023-01-26T06:59:20.826Z,1.40
2023-01-26T07:02:19.057Z,1.50
2023-01-26T07:04:47.406Z,1.50
2023-01-26T07:07:15.346Z,1.50
2023-01-26T07:09:42.361Z,1.50
2023-01-26T07:12:09.660Z,1.50
2023-01-26T07:14:36.775Z,1.60
2023-01-26T07:17:04.268Z,1.60
2023-01-26T07:19:33.276Z,1.50
2023-01-26T07:22:01.770Z,1.50
2023-01-26T07:24:29.684Z,1.50
2023-01-26T07:26:57.165Z,1.50
2023-01-26T07:29:24.294Z,1.60
2023-01-26T07:31:51.766Z,1.50
2023-01-26T07:34:18.962Z,1.50
2023-01-26T07:36:46.259Z,1.50
2023-01-26T07:39:13.583Z,1.50
2023-01-26T07:41:41.115Z,1.60
2023-01-26T07:44:34.186Z,1.60
2023-01-26T07:47:01.567Z,1.70
2023-01-26T07:49:28.733Z,1.70
2023-01-26T07:51:56.280Z,1.70
2023-01-26T07:54:23.622Z,1.70
2023-01-26T07:56:54.945Z,1.70
2023-01-26T07:59:23.428Z,1.70
2023-01-26T08:01:51.786Z,1.70
2023-01-26T08:04:19.211Z,1.70
2023-01-26T08:06:47.069Z,1.80
2023-01-26T08:09:14.198Z,1.80
2023-01-26T08:11:42.043Z,1.80
2023-01-26T08:14:09.133Z,1.80
2023-01-26T08:16:36.748Z,1.80
2023-01-26T08:19:04.035Z,1.80
2023-01-26T08:21:31.559Z,1.90
2023-01-26T08:24:01.968Z,1.90
2023-01-26T08:26:29.730Z,1.90
2023-01-26T08:28:59.040Z,1.90
2023-01-26T08:31:28.214Z,2.00
2023-01-26T08:33:56.541Z,2.00
2023-01-26T08:36:23.833Z,2.00
2023-01-26T08:38:52.380Z,2.10
2023-01-26T08:41:20.073Z,2.10
2023-01-26T08:43:47.252Z,2.10
2023-01-26T08:46:14.972Z,2.10
2023-01-26T08:48:42.099Z,2.10
2023-01-26T08:51:09.535Z,2.20
2023-01-26T08:53:37.663Z,2.20
2023-01-26T08:56:07.967Z,2.20
2023-01-26T08:58:36.116Z,2.20
2023-01-26T09:01:08.163Z,2.30
2023-01-26T09:03:35.631Z,2.30
2023-01-26T09:06:04.796Z,2.30
2023-01-26T09:08:33.143Z,2.30
2023-01-26T09:11:00.915Z,2.20
2023-01-26T09:13:27.977Z,2.20
2023-01-26T09:15:55.315Z,2.20
2023-01-26T09:18:29.819Z,2.20
2023-01-26T09:21:06.677Z,2.20
2023-01-26T09:23:34.383Z,2.30
2023-01-26T09:26:02.677Z,2.20
2023-01-26T09:28:29.796Z,2.20
2023-01-26T09:30:57.895Z,2.20
2023-01-26T09:33:26.791Z,2.20
2023-01-26T09:36:02.415Z,2.30
2023-01-26T09:38:29.323Z,2.30
2023-01-26T09:41:20.395Z,2.20
2023-01-26T09:43:57.999Z,2.30
2023-01-26T09:46:41.800Z,2.30
2023-01-26T09:49:14.356Z,2.30
2023-01-26T09:51:46.853Z,2.30
2023-01-26T09:54:22.664Z,2.20
2023-01-26T09:56:50.194Z,2.20
2023-01-26T09:59:39.578Z,2.30
2023-01-26T10:02:44.658Z,2.30
2023-01-26T10:05:32.201Z,2.30
2023-01-26T10:08:14.724Z,2.30
2023-01-26T10:10:49.475Z,2.30
2023-01-26T10:13:17.446Z,2.40
2023-01-26T10:16:00.289Z,2.40
2023-01-26T10:18:47.905Z,2.40
2023-01-26T10:21:15.688Z,2.50
2023-01-26T10:23:48.773Z,2.50
2023-01-26T10:26:18.839Z,2.50
2023-01-26T10:28:48.491Z,2.50
2023-01-26T10:31:16.830Z,2.50
2023-01-26T10:34:12.410Z,2.60
2023-01-26T10:36:41.687Z,2.60
2023-01-26T10:39:10.931Z,2.60
2023-01-26T10:41:39.188Z,2.60
2023-01-26T10:44:15.739Z,2.60
2023-01-26T10:46:43.430Z,2.70
2023-01-26T10:49:14.461Z,2.70
2023-01-26T10:51:45.216Z,2.70
2023-01-26T10:54:28.545Z,2.70
2023-01-26T10:57:02.559Z,3.10
2023-01-26T11:00:00.405Z,2.80
2023-01-26T11:02:29.651Z,2.80
2023-01-26T11:05:09.768Z,2.80
2023-01-26T11:07:40.515Z,2.70
2023-01-26T11:10:28.278Z,2.70
2023-01-26T11:13:16.667Z,2.70
2023-01-26T11:15:49.196Z,2.60
2023-01-26T11:18:16.190Z,2.70
2023-01-26T11:21:04.878Z,2.60
2023-01-26T11:23:49.927Z,2.60
2023-01-26T11:26:40.038Z,2.60
2023-01-26T11:29:07.005Z,2.60
2023-01-26T11:32:11.416Z,2.60
2023-01-26T11:34:54.869Z,2.70
2023-01-26T11:37:43.268Z,2.70
2023-01-26T11:40:20.634Z,2.60
2023-01-26T11:42:58.493Z,2.60
2023-01-26T11:45:35.164Z,2.60
2023-01-26T11:48:17.853Z,2.50
2023-01-26T11:51:01.361Z,2.50
2023-01-26T11:53:46.221Z,2.50
2023-01-26T11:56:24.521Z,2.50
2023-01-26T11:59:05.675Z,2.50
2023-01-26T12:01:41.439Z,2.50
2023-01-26T12:04:18.623Z,2.50
2023-01-26T12:06:49.045Z,2.50
2023-01-26T12:09:23.462Z,2.20
2023-01-26T12:12:05.377Z,2.50
2023-01-26T12:14:42.745Z,2.50
2023-01-26T12:17:28.834Z,2.50
2023-01-26T12:20:15.233Z,2.50
2023-01-26T12:22:49.481Z,2.50
2023-01-26T12:25:37.863Z,2.50
2023-01-26T12:28:27.765Z,2.50
2023-01-26T12:31:19.743Z,2.50
2023-01-26T12:33:49.079Z,2.50
2023-01-26T12:36:44.092Z,2.50
2023-01-26T12:39:17.245Z,2.60
2023-01-26T12:42:06.644Z,2.60
2023-01-26T12:45:04.729Z,2.50
2023-01-26T12:47:55.563Z,2.60
2023-01-26T12:50:39.708Z,2.60
2023-01-26T12:53:32.395Z,2.60
2023-01-26T12:56:08.484Z,2.60
2023-01-26T12:58:40.516Z,2.70
2023-01-26T13:01:16.709Z,2.60
2023-01-26T13:03:52.149Z,2.60
2023-01-26T13:06:24.710Z,2.60
2023-01-26T13:08:58.595Z,2.60
2023-01-26T13:11:47.524Z,2.60
2023-01-26T13:14:35.834Z,2.70
2023-01-26T13:17:18.974Z,2.70
2023-01-26T13:19:46.714Z,2.70
2023-01-26T13:22:19.594Z,2.70
2023-01-26T13:24:48.839Z,2.60
2023-01-26T13:27:38.049Z,2.60
2023-01-26T13:30:23.782Z,2.60
2023-01-26T13:32:52.780Z,2.50
2023-01-26T13:35:25.904Z,2.60
2023-01-26T13:37:52.930Z,2.70
2023-01-26T13:40:38.761Z,2.70
2023-01-26T13:43:26.309Z,2.70
2023-01-26T13:46:17.438Z,2.70
2023-01-26T13:48:48.343Z,2.70
2023-01-26T13:51:19.124Z,2.70
2023-01-26T13:54:14.277Z,2.70
2023-01-26T13:56:43.729Z,2.80
2023-01-26T13:59:16.877Z,2.80
2023-01-26T14:01:47.790Z,2.80
2023-01-26T14:04:35.397Z,2.80
2023-01-26T14:07:09.963Z,2.80
2023-01-26T14:09:52.136Z,2.80
2023-01-26T14:12:25.212Z,2.80
2023-01-26T14:15:00.326Z,2.80
2023-01-26T14:17:36.974Z,2.80
2023-01-26T14:20:29.963Z,2.80
2023-01-26T14:23:05.839Z,2.80
2023-01-26T14:25:34.331Z,2.80
2023-01-26T14:28:01.769Z,2.70
2023-01-26T14:30:34.260Z,2.70
2023-01-26T14:33:11.650Z,2.70
2023-01-26T14:35:38.980Z,2.60
2023-01-26T14:38:14.543Z,2.60
2023-01-26T14:40:46.507Z,2.60
2023-01-26T14:43:14.866Z,2.60
2023-01-26T14:45:54.942Z,2.60
2023-01-26T14:48:29.960Z,2.60
2023-01-26T14:50:58.463Z,2.60
2023-01-26T14:53:26.129Z,2.50
2023-01-26T14:55:53.882Z,2.50
2023-01-26T14:58:21.549Z,2.50
2023-01-26T15:00:50.168Z,2.60
2023-01-26T15:03:36.997Z,2.50
2023-01-26T15:06:28.573Z,2.50
2023-01-26T15:09:20.119Z,2.50
2023-01-26T15:12:12.489Z,2.60
2023-01-26T15:14:45.935Z,2.50
2023-01-26T15:17:30.407Z,2.50
2023-01-26T15:19:57.858Z,2.50
2023-01-26T15:22:27.926Z,2.50
2023-01-26T15:25:08.844Z,2.50
2023-01-26T15:27:37.043Z,2.50
2023-01-26T15:30:06.904Z,2.50
2023-01-26T15:32:41.866Z,2.50
2023-01-26T15:35:29.767Z,2.50
2023-01-26T15:38:05.347Z,2.50
2023-01-26T15:40:35.615Z,2.40
2023-01-26T15:43:28.335Z,2.40
2023-01-26T15:45:57.892Z,2.30
2023-01-26T15:48:26.925Z,2.30
2023-01-26T15:50:54.407Z,2.30
2023-01-26T15:53:24.640Z,2.30
2023-01-26T15:55:53.013Z,2.30
2023-01-26T15:58:20.607Z,2.30
2023-01-26T16:00:48.764Z,2.30
2023-01-26T16:03:18.431Z,2.30
2023-01-26T16:05:49.820Z,2.30
2023-01-26T16:08:19.478Z,2.30
2023-01-26T16:10:49.643Z,2.30
2023-01-26T16:13:18.887Z,2.30
2023-01-26T16:15:53.346Z,2.30
2023-01-26T16:18:22.515Z,2.20
2023-01-26T16:20:50.582Z,2.30
2023-01-26T16:23:19.431Z,2.30
2023-01-26T16:25:47.686Z,2.30
2023-01-26T16:28:15.525Z,2.30
2023-01-26T16:30:45.408Z,2.30
2023-01-26T16:33:15.297Z,2.30
2023-01-26T16:35:43.217Z,2.30
2023-01-26T16:38:13.207Z,2.30
2023-01-26T16:40:44.939Z,2.30
2023-01-26T16:43:23.801Z,2.30
2023-01-26T16:45:54.269Z,2.30
2023-01-26T16:48:22.921Z,2.30
2023-01-26T16:50:54.253Z,2.30
2023-01-26T16:53:27.655Z,2.30
2023-01-26T16:55:56.778Z,2.30
2023-01-26T16:58:26.562Z,2.30
2023-01-26T17:00:55.305Z,2.30
2023-01-26T17:03:33.126Z,2.30
2023-01-26T17:06:00.556Z,2.30
2023-01-26T17:08:27.573Z,2.20
2023-01-26T17:11:02.332Z,2.20
2023-01-26T17:13:31.527Z,2.20
2023-01-26T17:15:59.062Z,2.20
2023-01-26T17:18:26.161Z,2.20
2023-01-26T17:20:53.563Z,2.20
2023-01-26T17:23:20.655Z,2.20
2023-01-26T17:25:48.047Z,2.20
2023-01-26T17:28:15.137Z,2.10
2023-01-26T17:30:42.491Z,2.10
2023-01-26T17:33:09.502Z,2.10
2023-01-26T17:35:37.089Z,2.20
2023-01-26T17:38:04.334Z,2.10
2023-01-26T17:40:36.786Z,2.10
2023-01-26T17:43:03.911Z,2.10
2023-01-26T17:45:31.225Z,2.20
2023-01-26T17:47:58.252Z,2.20
2023-01-26T17:50:25.900Z,2.20
2023-01-26T17:52:52.912Z,2.20
2023-01-26T17:55:20.361Z,2.20
2023-01-26T17:57:47.379Z,2.20
2023-01-26T18:00:16.013Z,2.20
2023-01-26T18:02:46.068Z,2.20
2023-01-26T18:05:15.690Z,2.20
2023-01-26T18:07:42.735Z,2.20
2023-01-26T18:10:10.775Z,2.20
2023-01-26T18:12:37.923Z,2.20
2023-01-26T18:15:08.269Z,2.20
2023-01-26T18:17:37.260Z,2.20
2023-01-26T18:20:05.910Z,2.20
2023-01-26T18:22:33.345Z,2.20
2023-01-26T18:25:00.991Z,2.20
2023-01-26T18:27:29.132Z,2.20
2023-01-26T18:29:56.420Z,2.20
2023-01-26T18:32:23.539Z,2.20
2023-01-26T18:34:50.997Z,2.20
2023-01-26T18:37:18.052Z,2.20
2023-01-26T18:39:45.516Z,2.20
2023-01-26T18:42:12.518Z,2.20
2023-01-26T18:44:39.805Z,2.20
2023-01-26T18:47:06.803Z,2.20
2023-01-26T18:49:34.458Z,2.20
2023-01-26T18:52:01.536Z,2.20
2023-01-26T18:54:29.274Z,2.20
2023-01-26T18:56:57.010Z,2.20
2023-01-26T18:59:24.560Z,2.20
2023-01-26T19:01:55.444Z,2.20
2023-01-26T19:04:25.034Z,2.20
2023-01-26T19:06:52.235Z,2.30
2023-01-26T19:09:19.818Z,2.30
2023-01-26T19:11:47.146Z,2.30
2023-01-26T19:14:15.389Z,2.30
2023-01-26T19:16:43.842Z,2.30
2023-01-26T19:19:11.892Z,2.30
2023-01-26T19:21:39.138Z,2.30
2023-01-26T19:24:08.772Z,2.30
2023-01-26T19:26:35.893Z,2.30
2023-01-26T19:29:04.186Z,2.30
2023-01-26T19:31:32.121Z,2.30
2023-01-26T19:34:02.698Z,2.30
2023-01-26T19:36:37.346Z,2.30
2023-01-26T19:39:06.367Z,2.30
2023-01-26T19:41:34.986Z,2.30
2023-01-26T19:45:10.832Z,2.30
2023-01-26T19:47:56.694Z,2.30
2023-01-26T19:50:24.170Z,2.30
2023-01-26T19:52:51.430Z,2.30
2023-01-26T19:55:19.134Z,2.30
2023-01-26T19:57:46.198Z,2.30
2023-01-26T20:00:14.569Z,2.20
2023-01-26T20:02:42.127Z,2.20
2023-01-26T20:05:10.247Z,2.30
2023-01-26T20:07:37.980Z,2.20
2023-01-26T20:10:06.331Z,2.20
2023-01-26T20:12:33.896Z,2.20
2023-01-26T20:15:01.231Z,2.20
2023-01-26T20:17:28.385Z,2.20
2023-01-26T20:20:03.339Z,2.20
2023-01-26T20:22:33.605Z,2.20
2023-01-26T20:25:03.773Z,2.20
2023-01-26T20:27:31.360Z,2.20
2023-01-26T20:29:59.283Z,2.20
2023-01-26T20:32:26.948Z,2.20
2023-01-26T20:34:56.686Z,2.20
2023-01-26T20:37:23.827Z,2.20
2023-01-26T20:39:51.405Z,2.20
2023-01-26T20:42:18.940Z,2.20
2023-01-26T20:44:46.314Z,2.20
2023-01-26T20:47:13.597Z,2.20
2023-01-26T20:49:43.398Z,2.20
2023-01-26T20:52:10.468Z,2.20
2023-01-26T20:54:38.217Z,2.30
2023-01-26T20:57:05.290Z,2.30
2023-01-26T20:59:32.601Z,2.30
2023-01-26T21:01:59.786Z,2.20
2023-01-26T21:04:33.137Z,2.30
2023-01-26T21:07:00.219Z,2.20
2023-01-26T21:09:27.818Z,2.30
2023-01-26T21:11:54.818Z,2.30
2023-01-26T21:14:22.194Z,2.30
2023-01-26T21:16:51.838Z,2.30
2023-01-26T21:19:19.208Z,2.30
2023-01-26T21:21:46.210Z,2.30
2023-01-26T21:24:13.776Z,2.30
2023-01-26T21:26:44.097Z,2.30
2023-01-26T21:29:14.808Z,2.30
2023-01-26T21:31:41.845Z,2.30
2023-01-26T21:34:09.915Z,2.30
2023-01-26T21:36:37.142Z,2.30
2023-01-26T21:39:04.834Z,2.30
2023-01-26T21:41:52.346Z,2.30
2023-01-26T21:44:24.728Z,2.30
2023-01-26T21:46:57.303Z,2.30
2023-01-26T21:49:25.162Z,2.30
2023-01-26T21:52:11.358Z,2.30
2023-01-26T21:54:39.187Z,2.30
2023-01-26T21:57:28.965Z,2.30
2023-01-26T21:59:56.570Z,2.30
2023-01-26T22:02:24.071Z,2.30
2023-01-26T22:04:51.993Z,2.30
2023-01-26T22:07:19.110Z,2.30
2023-01-26T22:09:48.138Z,2.30
2023-01-26T22:12:15.453Z,2.20
2023-01-26T22:14:42.708Z,2.20
2023-01-26T22:17:09.839Z,2.20
2023-01-26T22:19:37.096Z,2.20
2023-01-26T22:22:04.398Z,2.20
2023-01-26T22:24:31.771Z,2.10
2023-01-26T22:26:58.815Z,2.20
2023-01-26T22:29:26.194Z,2.20
2023-01-26T22:31:53.456Z,2.20
2023-01-26T22:34:21.391Z,2.00
2023-01-26T22:36:48.753Z,2.10
2023-01-26T22:39:16.953Z,2.10
2023-01-26T22:41:43.989Z,2.10
2023-01-26T22:44:11.297Z,2.00
2023-01-26T22:46:38.419Z,1.90
2023-01-26T22:49:05.914Z,1.90
2023-01-26T22:51:37.555Z,1.90
2023-01-26T22:54:05.550Z,1.90
2023-01-26T22:56:32.859Z,1.90
2023-01-26T22:59:00.854Z,1.90
2023-01-26T23:01:31.179Z,1.90
2023-01-26T23:03:59.509Z,1.90
2023-01-26T23:06:28.096Z,1.90
2023-01-26T23:08:55.932Z,1.90
2023-01-26T23:11:25.989Z,2.00
2023-01-26T23:13:55.196Z,2.00
2023-01-26T23:16:23.669Z,2.00
2023-01-26T23:18:52.907Z,2.00
2023-01-26T23:21:20.188Z,1.90
2023-01-26T23:23:47.859Z,1.90
2023-01-26T23:26:15.043Z,2.00
2023-01-26T23:28:43.533Z,1.90
2023-01-26T23:31:11.946Z,1.90
2023-01-26T23:33:39.959Z,2.00
2023-01-26T23:36:08.484Z,2.00
2023-01-26T23:38:36.160Z,2.00
2023-01-26T23:41:05.480Z,2.00
2023-01-26T23:43:33.054Z,2.00
2023-01-26T23:46:00.412Z,2.00
2023-01-26T23:48:28.233Z,2.00
2023-01-26T23:51:00.267Z,2.00
2023-01-26T23:53:29.403Z,2.00
2023-01-26T23:55:58.574Z,2.00
2023-01-26T23:58:25.847Z,2.00
